Terminal Aerodrome Forecast
Issued by NWS

Current Version | Previous Version | Text Only | Print | Product List | Glossary Off
Versions: 1 2 3 4 5 6 7 8 9 10 11 12 13 14 15

000
FTUS44 KSJT 171400 AAA
TAFJCT
TAF AMD
KJCT 171426Z 1714/1812 VRB04KT P6SM SCT025 BKN120
     FM171800 10007KT P6SM SCT050 BKN200
     FM180900 13007KT P6SM SCT025=

USA.gov is the U.S. government's official web portal to all federal, state and local government web resources and services.